Time;durP1;ratioP1;P1;durP2;ratioP2;P2;SDS_P1;SDS_P2;PMS_P1;PMS_P2;Temp;Humidity;BMP_temperature;BMP_pressure;BME280_temperature;BME280_humidity;BME280_pressure;Samples;Min_cycle;Max_cycle;Signal;HPM_P1;HPM_P2
2023/03/11 00:01:01;;;;;;;5.55;1.92;;;;;;;9.73;45.54;97020.38;5109301;28;20306;-75
2023/03/11 00:03:28;;;;;;;3.10;1.95;;;;;;;9.72;45.44;97004.66;5108613;28;20040;-75
2023/03/11 00:05:57;;;;;;;4.40;1.67;;;;;;;9.51;45.49;96981.78;5108324;28;20040;-75
2023/03/11 00:08:27;;;;;;;2.97;1.45;;;;;;;9.32;45.69;96956.09;5109035;28;20035;-75
2023/03/11 00:10:55;;;;;;;4.00;1.90;;;;;;;9.49;45.57;97002.22;5092015;28;20036;-75
2023/03/11 00:13:23;;;;;;;3.83;1.70;;;;;;;9.70;45.58;97033.88;5109444;28;20385;-75
2023/03/11 00:15:54;;;;;;;6.47;1.83;;;;;;;9.73;45.41;97035.41;5109289;28;20089;-74
2023/03/11 00:18:24;;;;;;;2.60;1.52;;;;;;;9.70;45.61;97031.25;5108076;28;20035;-75
2023/03/11 00:20:51;;;;;;;4.47;1.85;;;;;;;9.65;45.65;97036.09;5108865;28;20048;-74
2023/03/11 00:23:18;;;;;;;4.75;2.38;;;;;;;9.63;45.75;97073.25;5109169;28;20040;-74
2023/03/11 00:25:47;;;;;;;4.03;1.40;;;;;;;9.38;45.70;97009.41;5109068;28;20047;-74
2023/03/11 00:28:15;;;;;;;4.65;1.70;;;;;;;9.59;45.57;97031.34;5107999;28;20058;-75
2023/03/11 00:30:43;;;;;;;2.85;1.67;;;;;;;9.54;45.75;97052.91;5109012;28;20054;-74
2023/03/11 00:33:12;;;;;;;3.40;1.58;;;;;;;9.48;45.90;97060.53;5109181;28;20044;-74
2023/03/11 00:35:39;;;;;;;5.10;1.75;;;;;;;9.31;46.14;97070.72;5109119;28;20066;-74
2023/03/11 00:38:07;;;;;;;4.47;1.80;;;;;;;7.74;47.61;96824.56;5107946;28;20036;-74
2023/03/11 00:40:36;;;;;;;3.05;1.70;;;;;;;9.40;49.35;97111.44;5108577;28;20040;-74
2023/03/11 00:43:04;;;;;;;3.38;2.30;;;;;;;9.12;49.74;97067.97;5108494;28;20052;-74
2023/03/11 00:45:32;;;;;;;4.10;2.13;;;;;;;9.16;49.67;97121.38;5108615;28;20035;-74
2023/03/11 00:47:59;;;;;;;3.45;2.00;;;;;;;9.09;50.57;97131.63;5108588;28;20043;-75
2023/03/11 00:50:28;;;;;;;4.47;1.70;;;;;;;8.96;50.63;97149.47;5108993;28;20050;-75
2023/03/11 00:52:55;;;;;;;4.15;1.67;;;;;;;8.31;50.54;97043.09;5108001;28;20325;-75
2023/03/11 00:55:24;;;;;;;4.03;1.88;;;;;;;8.06;50.31;97030.25;5108323;28;20048;-75
2023/03/11 00:57:53;;;;;;;3.20;1.77;;;;;;;8.86;50.80;97143.28;5107191;28;20048;-76
2023/03/11 01:00:23;;;;;;;3.13;1.67;;;;;;;8.84;51.30;97155.78;5107775;28;20087;-75
2023/03/11 01:02:50;;;;;;;3.22;1.77;;;;;;;8.84;50.79;97169.84;5106918;28;20066;-76
2023/03/11 01:05:19;;;;;;;4.28;2.13;;;;;;;8.82;50.82;97165.63;5108034;28;20054;-76
2023/03/11 01:07:46;;;;;;;3.17;1.70;;;;;;;8.79;51.07;97189.66;5107484;28;20137;-76
2023/03/11 01:10:13;;;;;;;2.90;1.55;;;;;;;8.57;50.62;97166.81;5108257;28;20050;-76
2023/03/11 01:12:40;;;;;;;4.00;1.88;;;;;;;8.66;50.71;97205.69;5107808;28;20062;-76
2023/03/11 01:15:09;;;;;;;2.35;1.58;;;;;;;8.68;50.83;97190.53;5108261;28;20032;-75
2023/03/11 01:17:37;;;;;;;2.47;1.63;;;;;;;8.57;50.48;97195.88;5107649;28;20040;-75
2023/03/11 01:20:07;;;;;;;2.72;1.75;;;;;;;8.57;50.22;97209.91;5106863;28;20051;-75
2023/03/11 01:22:34;;;;;;;4.88;1.90;;;;;;;8.54;50.30;97209.31;5107721;28;20119;-75
2023/03/11 01:25:01;;;;;;;2.53;1.60;;;;;;;8.51;50.08;97210.41;5106791;28;20044;-75
2023/03/11 01:27:28;;;;;;;3.17;1.80;;;;;;;8.45;49.63;97192.41;5106450;28;20039;-75
2023/03/11 01:29:55;;;;;;;3.20;2.05;;;;;;;8.23;49.55;97166.06;5107456;28;20097;-75
2023/03/11 01:32:22;;;;;;;3.72;2.00;;;;;;;8.43;49.44;97191.69;5106949;28;20082;-75
2023/03/11 01:34:50;;;;;;;3.67;2.17;;;;;;;8.42;49.21;97205.03;5106348;28;20039;-75
2023/03/11 01:37:19;;;;;;;2.97;2.00;;;;;;;8.05;49.18;97118.25;5107553;28;20040;-75
2023/03/11 01:39:45;;;;;;;2.72;1.60;;;;;;;8.43;48.91;97193.50;5107245;28;20093;-75
2023/03/11 01:42:12;;;;;;;3.17;1.95;;;;;;;8.07;48.32;97145.34;5107651;28;20048;-75
2023/03/11 01:44:39;;;;;;;2.60;1.58;;;;;;;8.34;48.07;97176.59;5106654;28;20278;-75
2023/03/11 01:47:35;;;;;;;2.20;1.50;;;;;;;8.28;46.91;97200.84;5107179;28;20054;-75
2023/03/11 01:50:08;;;;;;;2.70;1.98;;;;;;;8.23;47.04;97230.25;5107687;28;20043;-75
2023/03/11 01:52:35;;;;;;;2.47;1.52;;;;;;;8.21;47.24;97223.41;5107044;28;20300;-75
2023/03/11 01:55:02;;;;;;;2.30;1.48;;;;;;;7.54;47.33;97115.31;5107187;28;20066;-75
2023/03/11 01:57:29;;;;;;;3.13;1.83;;;;;;;7.79;46.69;97190.69;5106711;28;20119;-74
2023/03/11 02:00:00;;;;;;;2.30;1.50;;;;;;;8.11;46.29;97270.78;5107003;28;20044;-74
2023/03/11 02:02:32;;;;;;;2.50;1.50;;;;;;;7.41;45.83;97120.69;5105755;28;20047;-76
2023/03/11 02:05:01;;;;;;;2.30;1.58;;;;;;;7.98;45.81;97241.88;5106791;28;20351;-77
2023/03/11 02:07:29;;;;;;;2.20;1.50;;;;;;;7.90;45.20;97264.53;5106135;28;20036;-76
2023/03/11 02:09:56;;;;;;;3.75;1.67;;;;;;;7.82;43.99;97246.66;5105758;28;20046;-74
2023/03/11 02:12:23;;;;;;;3.40;1.70;;;;;;;7.69;42.85;97269.66;5106840;28;20042;-76
2023/03/11 02:14:53;;;;;;;2.20;1.40;;;;;;;7.56;42.71;97268.91;5106503;28;20036;-74
2023/03/11 02:17:21;;;;;;;3.30;1.40;;;;;;;7.11;43.54;97176.56;5105607;28;20031;-74
2023/03/11 02:20:11;;;;;;;4.30;1.70;;;;;;;7.11;40.62;97236.31;5107123;28;20059;-75
2023/03/11 02:22:41;;;;;;;2.20;1.50;;;;;;;7.27;42.65;97252.63;5106734;28;20035;-75
2023/03/11 02:25:16;;;;;;;2.10;1.50;;;;;;;7.27;42.45;97248.22;5105662;28;20219;-74
2023/03/11 02:27:48;;;;;;;2.20;1.35;;;;;;;7.00;42.19;97218.66;5106230;28;20032;-74
2023/03/11 02:30:16;;;;;;;2.25;1.45;;;;;;;7.21;42.89;97269.75;5106479;28;20039;-74
2023/03/11 02:32:47;;;;;;;2.00;1.50;;;;;;;7.14;42.39;97297.50;5106541;28;20036;-74
2023/03/11 02:35:14;;;;;;;2.20;1.45;;;;;;;7.00;42.78;97269.53;5106693;28;20040;-74
2023/03/11 02:37:45;;;;;;;2.25;1.63;;;;;;;6.94;42.91;97277.06;5105287;28;20040;-74
2023/03/11 02:40:37;;;;;;;4.05;1.60;;;;;;;6.92;41.52;97295.59;5105934;28;20036;-75
2023/03/11 02:43:08;;;;;;;2.58;2.05;;;;;;;5.49;42.43;97089.38;5106532;28;20048;-75
2023/03/11 02:45:38;;;;;;;4.70;1.65;;;;;;;6.75;42.30;97301.22;5105964;28;20185;-75
2023/03/11 02:48:08;;;;;;;2.63;1.60;;;;;;;6.48;43.05;97267.19;5105947;28;20038;-76
2023/03/11 02:50:36;;;;;;;2.30;1.70;;;;;;;6.22;42.74;97212.97;5105475;28;20047;-76
2023/03/11 02:53:04;;;;;;;2.60;1.70;;;;;;;6.52;42.49;97294.13;5105078;28;20044;-75
2023/03/11 02:55:31;;;;;;;2.22;1.70;;;;;;;6.37;42.31;97273.22;5104695;28;20059;-75
2023/03/11 02:57:58;;;;;;;2.65;1.90;;;;;;;6.07;42.74;97280.63;5105984;28;20242;-75
2023/03/11 03:00:28;;;;;;;2.47;1.67;;;;;;;5.95;42.01;97242.06;5105598;28;20188;-76
2023/03/11 03:02:55;;;;;;;2.65;1.80;;;;;;;6.31;42.55;97322.81;5105698;28;20203;-75
2023/03/11 03:05:23;;;;;;;2.63;1.70;;;;;;;6.29;42.60;97312.38;5088571;28;20173;-75
2023/03/11 03:07:51;;;;;;;2.70;1.80;;;;;;;6.29;42.46;97312.38;5106110;28;20044;-75
2023/03/11 03:10:21;;;;;;;2.50;1.92;;;;;;;6.28;42.42;97296.72;5106224;28;20050;-75
2023/03/11 03:12:48;;;;;;;2.40;1.80;;;;;;;6.28;42.40;97301.97;5104757;28;20059;-76
2023/03/11 03:15:16;;;;;;;2.30;1.70;;;;;;;6.28;42.45;97309.84;5108914;28;20042;-75
2023/03/11 03:17:45;;;;;;;2.55;1.80;;;;;;;5.86;42.34;97261.09;5111402;28;20085;-75
2023/03/11 03:20:13;;;;;;;2.30;1.80;;;;;;;5.96;42.73;97291.06;5111454;28;20052;-76
2023/03/11 03:22:42;;;;;;;2.40;1.80;;;;;;;5.94;42.62;97293.78;5112542;28;20055;-76
2023/03/11 03:25:10;;;;;;;2.35;1.70;;;;;;;6.10;42.58;97322.50;5112336;28;20040;-75
2023/03/11 03:27:38;;;;;;;2.67;1.90;;;;;;;6.07;42.94;97333.22;5112642;28;20043;-76
2023/03/11 03:30:07;;;;;;;2.92;2.08;;;;;;;6.10;42.65;97331.25;5112574;28;20032;-76
2023/03/11 03:32:34;;;;;;;2.65;1.80;;;;;;;6.04;42.70;97334.28;5112454;28;20040;-75
2023/03/11 03:35:03;;;;;;;2.92;1.85;;;;;;;6.03;42.90;97337.88;5112228;28;20048;-76
2023/03/11 03:37:34;;;;;;;2.50;1.80;;;;;;;5.21;42.85;97242.78;5112445;28;20039;-75
2023/03/11 03:40:01;;;;;;;2.40;1.70;;;;;;;6.00;43.38;97355.63;5112661;28;20044;-75
2023/03/11 03:42:28;;;;;;;3.85;2.08;;;;;;;6.01;43.07;97349.44;5112080;28;20036;-75
2023/03/11 03:44:55;;;;;;;2.40;1.70;;;;;;;5.27;42.76;97222.19;5111313;28;20058;-76
2023/03/11 03:47:22;;;;;;;3.60;1.80;;;;;;;6.03;42.93;97348.38;5111998;28;20331;-75
2023/03/11 03:49:49;;;;;;;2.70;2.10;;;;;;;6.04;42.92;97359.75;5111999;28;20032;-75
2023/03/11 03:52:17;;;;;;;2.60;1.90;;;;;;;6.01;42.69;97352.06;5112120;28;20044;-75
2023/03/11 03:54:44;;;;;;;3.80;1.83;;;;;;;5.23;42.92;97260.13;5111223;28;20051;-75
2023/03/11 03:57:11;;;;;;;2.50;1.85;;;;;;;5.99;42.48;97362.69;5111958;28;20044;-75
2023/03/11 03:59:38;;;;;;;2.80;2.38;;;;;;;5.93;42.30;97354.38;5111248;28;20203;-76
2023/03/11 04:02:05;;;;;;;3.65;1.80;;;;;;;5.64;42.62;97317.75;5111044;28;20036;-75
2023/03/11 04:04:33;;;;;;;2.50;1.80;;;;;;;5.84;42.53;97353.22;5112236;28;20140;-75
2023/03/11 04:07:00;;;;;;;2.65;1.80;;;;;;;5.45;42.32;97276.13;5111098;28;20048;-74
2023/03/11 04:09:29;;;;;;;2.53;1.70;;;;;;;5.83;42.28;97356.78;5110772;28;20044;-75
2023/03/11 04:11:56;;;;;;;3.53;1.70;;;;;;;5.35;42.01;97285.56;5111908;28;20318;-75
2023/03/11 04:14:23;;;;;;;2.50;1.95;;;;;;;4.59;42.38;97184.75;5112247;28;20032;-75
2023/03/11 04:16:49;;;;;;;2.40;1.80;;;;;;;5.67;42.08;97385.88;5112190;28;20055;-75
2023/03/11 04:19:17;;;;;;;2.50;1.83;;;;;;;5.60;42.02;97358.34;5112080;28;20035;-75
2023/03/11 04:21:44;;;;;;;2.40;1.83;;;;;;;3.77;41.96;97067.69;5111654;28;20039;-75
2023/03/11 04:24:11;;;;;;;2.85;2.03;;;;;;;5.52;41.53;97375.56;5111447;28;20067;-74
2023/03/11 04:26:39;;;;;;;3.35;1.70;;;;;;;5.23;41.36;97338.91;5109111;28;20203;-76
2023/03/11 04:29:06;;;;;;;2.40;1.80;;;;;;;5.08;41.20;97332.88;5091103;28;20093;-75
2023/03/11 04:31:33;;;;;;;2.60;1.65;;;;;;;5.37;41.45;97373.00;5109433;28;20044;-75
2023/03/11 04:34:00;;;;;;;2.58;1.70;;;;;;;5.37;41.32;97383.50;5108541;28;20213;-75
2023/03/11 04:36:27;;;;;;;2.30;1.60;;;;;;;5.32;40.81;97368.97;5108824;28;20203;-75
2023/03/11 04:38:55;;;;;;;2.33;1.60;;;;;;;5.31;40.29;97373.38;5109352;28;20036;-75
2023/03/11 04:41:22;;;;;;;2.53;1.77;;;;;;;5.27;41.13;97386.81;5108619;28;20040;-75
2023/03/11 04:43:50;;;;;;;2.20;1.52;;;;;;;5.24;41.05;97389.66;5108796;28;20054;-75
2023/03/11 04:46:17;;;;;;;2.20;1.48;;;;;;;5.19;40.71;97371.56;5108617;28;20040;-75
2023/03/11 04:48:43;;;;;;;3.33;1.60;;;;;;;5.18;40.96;97376.91;5108823;28;20036;-75
2023/03/11 04:51:10;;;;;;;2.90;1.60;;;;;;;4.80;40.77;97296.19;5108771;28;20036;-75
2023/03/11 04:53:37;;;;;;;2.10;1.60;;;;;;;5.16;40.61;97368.28;5108766;28;20040;-76
2023/03/11 04:56:04;;;;;;;2.25;1.60;;;;;;;5.10;40.06;97364.28;5108069;28;20063;-76
2023/03/11 04:58:31;;;;;;;2.20;1.42;;;;;;;5.03;40.36;97365.63;5108929;28;20048;-76
2023/03/11 05:00:59;;;;;;;5.68;1.50;;;;;;;4.11;40.13;97211.38;5107862;28;20044;-76
2023/03/11 05:03:26;;;;;;;2.47;1.65;;;;;;;4.91;40.35;97387.41;5108663;28;20048;-75
2023/03/11 05:05:55;;;;;;;2.63;1.80;;;;;;;4.86;40.31;97378.94;5108063;28;20048;-76
2023/03/11 05:08:22;;;;;;;2.40;1.77;;;;;;;4.85;40.64;97396.47;5107102;28;20063;-75
2023/03/11 05:10:52;;;;;;;2.47;1.60;;;;;;;4.86;40.52;97397.31;5107975;28;20062;-75
2023/03/11 05:13:19;;;;;;;2.10;1.50;;;;;;;4.82;40.62;97384.38;5107299;28;20258;-76
2023/03/11 05:15:46;;;;;;;2.70;1.70;;;;;;;4.83;40.76;97398.34;5108589;28;20231;-75
2023/03/11 05:18:15;;;;;;;2.42;1.70;;;;;;;4.85;40.47;97380.72;5108230;28;20036;-76
2023/03/11 05:20:42;;;;;;;2.28;1.60;;;;;;;4.84;40.36;97393.94;5107044;28;20040;-75
2023/03/11 05:23:09;;;;;;;2.15;1.50;;;;;;;4.78;40.48;97397.78;5107798;28;20084;-75
2023/03/11 05:25:36;;;;;;;2.50;1.80;;;;;;;4.82;40.23;97407.16;5107969;28;20050;-75
2023/03/11 05:28:02;;;;;;;2.50;1.70;;;;;;;4.78;40.22;97385.53;5108527;28;20039;-75
2023/03/11 05:30:29;;;;;;;2.50;1.70;;;;;;;4.80;40.49;97383.63;5106878;28;20036;-75
2023/03/11 05:32:56;;;;;;;2.20;1.60;;;;;;;4.16;40.07;97280.09;5107181;28;20046;-76
2023/03/11 05:35:24;;;;;;;2.60;1.60;;;;;;;4.82;40.44;97388.78;5107149;28;20126;-76
2023/03/11 05:37:52;;;;;;;2.85;2.03;;;;;;;4.84;40.43;97393.94;5106577;28;20046;-76
2023/03/11 05:40:19;;;;;;;2.17;1.60;;;;;;;4.42;39.77;97324.88;5106798;28;20289;-75
2023/03/11 05:42:46;;;;;;;2.20;1.40;;;;;;;4.75;39.82;97388.34;5106626;28;20096;-76
2023/03/11 05:45:13;;;;;;;2.38;1.60;;;;;;;4.21;40.01;97315.72;5107746;28;20040;-75
2023/03/11 05:47:42;;;;;;;3.50;1.60;;;;;;;4.67;40.22;97376.63;5106316;28;20044;-76
2023/03/11 05:50:11;;;;;;;2.50;1.70;;;;;;;4.60;39.81;97380.56;5106661;28;20052;-75
2023/03/11 05:52:39;;;;;;;2.80;2.30;;;;;;;4.20;40.22;97319.22;5107612;28;20080;-75
2023/03/11 05:55:08;;;;;;;2.72;1.77;;;;;;;4.60;40.33;97375.34;5107100;28;20060;-76
2023/03/11 05:57:35;;;;;;;2.65;1.70;;;;;;;4.60;40.21;97391.06;5107233;28;20052;-75
2023/03/11 06:00:03;;;;;;;3.58;1.85;;;;;;;4.55;40.18;97403.63;5106201;28;20032;-76
2023/03/11 06:02:29;;;;;;;3.70;1.80;;;;;;;4.29;39.94;97347.53;5107059;28;20050;-75
2023/03/11 06:04:56;;;;;;;2.28;1.60;;;;;;;4.51;40.00;97383.78;5106889;28;20046;-76
2023/03/11 06:07:23;;;;;;;2.67;1.70;;;;;;;4.54;40.06;97380.97;5105637;28;20042;-75
2023/03/11 06:09:54;;;;;;;2.30;1.70;;;;;;;4.56;40.11;97374.69;5106878;28;20041;-75
2023/03/11 06:12:21;;;;;;;2.67;1.60;;;;;;;4.61;40.43;97377.88;5105939;28;20047;-76
2023/03/11 06:14:47;;;;;;;2.53;1.70;;;;;;;4.68;40.15;97401.94;5106476;28;20040;-76
2023/03/11 06:17:14;;;;;;;2.40;1.70;;;;;;;3.96;40.37;97249.03;5106341;28;20059;-76
2023/03/11 06:19:41;;;;;;;2.10;1.50;;;;;;;4.76;40.40;97382.16;5106512;28;20044;-76
2023/03/11 06:22:08;;;;;;;2.47;1.75;;;;;;;4.87;40.13;97389.34;5107096;28;20050;-75
2023/03/11 06:24:35;;;;;;;2.53;1.77;;;;;;;4.96;40.01;97382.69;5106294;28;20078;-75
2023/03/11 06:27:04;;;;;;;2.90;1.80;;;;;;;4.95;39.70;97371.34;5105858;28;20039;-75
2023/03/11 06:29:30;;;;;;;2.67;1.85;;;;;;;5.04;39.97;97378.66;5105790;28;20039;-76
2023/03/11 06:31:57;;;;;;;2.58;1.80;;;;;;;5.18;39.86;97372.50;5105476;28;20042;-75
2023/03/11 06:34:24;;;;;;;2.53;1.77;;;;;;;4.65;39.61;97253.41;5106835;28;20215;-76
2023/03/11 06:36:51;;;;;;;2.85;1.70;;;;;;;5.05;39.60;97305.97;5105958;28;20044;-76
2023/03/11 06:39:17;;;;;;;2.40;1.80;;;;;;;5.60;39.04;97417.94;5105234;28;20032;-75
2023/03/11 06:41:44;;;;;;;2.67;1.73;;;;;;;5.22;39.12;97329.34;5106597;28;20054;-75
2023/03/11 06:44:12;;;;;;;3.85;1.80;;;;;;;5.73;39.02;97372.34;5105897;28;20177;-76
2023/03/11 06:46:39;;;;;;;3.88;1.90;;;;;;;5.81;39.14;97355.22;5105832;28;20043;-76
2023/03/11 06:49:07;;;;;;;2.90;1.98;;;;;;;5.03;38.71;97252.72;5106169;28;20032;-75
2023/03/11 06:51:34;;;;;;;2.60;1.80;;;;;;;6.06;38.80;97371.84;5105802;28;20032;-75
2023/03/11 06:54:01;;;;;;;2.85;1.80;;;;;;;6.30;38.59;97379.00;5106202;28;20040;-75
2023/03/11 06:56:28;;;;;;;4.38;1.80;;;;;;;6.48;38.23;97367.19;5104836;28;20074;-75
2023/03/11 06:58:55;;;;;;;3.50;1.63;;;;;;;6.62;37.68;97401.28;5105140;28;20120;-75
2023/03/11 07:01:24;;;;;;;2.42;1.65;;;;;;;6.12;37.57;97286.41;5105909;28;20040;-75
2023/03/11 07:03:52;;;;;;;2.25;1.52;;;;;;;6.82;37.73;97376.22;5106019;28;20058;-75
2023/03/11 07:06:21;;;;;;;12.93;2.00;;;;;;;7.00;37.62;97379.31;5104921;28;20032;-74
2023/03/11 07:08:49;;;;;;;2.10;1.50;;;;;;;7.15;37.68;97365.03;5105524;28;20032;-76
2023/03/11 07:11:18;;;;;;;10.50;1.80;;;;;;;6.72;37.12;97286.47;5104940;28;20047;-75
2023/03/11 07:13:45;;;;;;;2.25;1.70;;;;;;;6.78;37.11;97292.25;5105960;28;20184;-76
2023/03/11 07:16:15;;;;;;;4.15;2.15;;;;;;;7.49;36.54;97379.25;5106474;28;20032;-76
2023/03/11 07:18:45;;;;;;;4.88;1.70;;;;;;;6.58;36.27;97283.16;5106361;28;20097;-76
2023/03/11 07:21:17;;;;;;;2.25;1.60;;;;;;;7.69;36.57;97383.03;5105334;28;20099;-75
2023/03/11 07:23:44;;;;;;;2.30;1.50;;;;;;;7.69;35.89;97394.44;5105026;28;20062;-74
2023/03/11 07:26:14;;;;;;;2.65;1.70;;;;;;;7.78;36.65;97400.81;5106479;28;20184;-74
2023/03/11 07:28:43;;;;;;;2.50;1.60;;;;;;;7.89;36.33;97432.50;5104911;28;20042;-74
2023/03/11 07:31:11;;;;;;;3.92;2.15;;;;;;;7.61;35.84;97362.53;5106072;28;20052;-74
2023/03/11 07:33:38;;;;;;;2.90;1.70;;;;;;;8.04;35.88;97412.03;5105176;28;20115;-74
2023/03/11 07:36:09;;;;;;;2.40;1.60;;;;;;;8.10;35.60;97488.09;5105074;28;20036;-74
2023/03/11 07:38:36;;;;;;;2.35;1.50;;;;;;;8.00;36.41;97398.25;5105264;28;20048;-74
2023/03/11 07:41:04;;;;;;;3.60;1.75;;;;;;;8.40;35.65;97447.97;5104673;28;20046;-74
2023/03/11 07:43:32;;;;;;;3.50;1.80;;;;;;;8.47;35.75;97459.75;5105407;28;20102;-74
2023/03/11 07:46:06;;;;;;;2.50;1.83;;;;;;;8.55;35.19;97462.66;5104868;28;20046;-74
2023/03/11 07:48:34;;;;;;;;;;;;;;;7.33;33.31;97258.31;5105689;28;20028;-74
2023/03/11 07:51:02;;;;;;;2.58;1.65;;;;;;;8.73;35.70;97502.66;5104363;28;19916;-74
2023/03/11 07:53:31;;;;;;;2.83;1.60;;;;;;;8.84;35.46;97475.41;5103968;28;20044;-74
2023/03/11 07:55:58;;;;;;;2.20;1.60;;;;;;;8.45;35.41;97405.41;5104918;28;20048;-74
2023/03/11 07:58:25;;;;;;;3.03;1.70;;;;;;;8.17;35.81;97351.25;5104358;28;20044;-74
2023/03/11 08:00:53;;;;;;;2.63;1.70;;;;;;;8.99;35.41;97455.72;5106958;28;20036;-74
2023/03/11 08:03:20;;;;;;;2.97;1.60;;;;;;;9.41;35.49;97508.84;5074941;28;20043;-74
2023/03/11 08:05:48;;;;;;;2.28;1.60;;;;;;;9.44;35.18;97490.09;5108305;28;20040;-74
2023/03/11 08:08:14;;;;;;;2.80;1.98;;;;;;;9.26;35.30;97465.94;5108195;28;20035;-74
2023/03/11 08:10:43;;;;;;;2.67;1.75;;;;;;;9.60;34.94;97504.59;5108859;28;20279;-74
2023/03/11 08:13:10;;;;;;;4.00;1.60;;;;;;;9.66;34.81;97513.00;5108097;28;20054;-74
2023/03/11 08:15:38;;;;;;;2.45;1.73;;;;;;;9.79;35.06;97519.84;5108953;28;20089;-74
2023/03/11 08:18:05;;;;;;;2.83;2.00;;;;;;;9.98;34.75;97505.09;5106908;28;20028;-74
2023/03/11 08:20:32;;;;;;;2.72;1.70;;;;;;;10.17;34.61;97524.63;5108514;28;20070;-75
2023/03/11 08:22:59;;;;;;;4.68;1.60;;;;;;;10.16;34.20;97538.00;5107911;28;20036;-74
2023/03/11 08:25:26;;;;;;;2.50;1.60;;;;;;;10.14;34.57;97527.53;5108300;28;20105;-74
2023/03/11 08:27:54;;;;;;;3.42;1.73;;;;;;;10.22;34.51;97535.69;5109143;28;20058;-74
2023/03/11 08:30:22;;;;;;;2.30;1.60;;;;;;;10.37;34.30;97553.94;5107813;28;20055;-74
2023/03/11 08:32:49;;;;;;;2.20;1.50;;;;;;;9.38;33.99;97361.84;5107890;28;20124;-74
2023/03/11 08:35:16;;;;;;;3.38;1.63;;;;;;;10.40;34.35;97551.88;5108608;28;20055;-74
2023/03/11 08:37:43;;;;;;;2.25;1.48;;;;;;;10.42;33.86;97560.53;5108368;28;20042;-74
2023/03/11 08:40:11;;;;;;;2.38;1.60;;;;;;;10.44;34.68;97550.63;5108584;28;20042;-74
2023/03/11 08:42:38;;;;;;;2.50;1.50;;;;;;;9.23;34.13;97336.66;5107630;28;20047;-75
2023/03/11 08:45:08;;;;;;;2.10;1.40;;;;;;;10.66;33.96;97556.78;5107554;28;20046;-74
2023/03/11 08:47:36;;;;;;;2.20;1.40;;;;;;;10.90;33.89;97541.50;5107429;28;20040;-74
2023/03/11 08:50:03;;;;;;;2.35;1.63;;;;;;;10.67;33.18;97484.28;5108443;28;20047;-74
2023/03/11 08:52:31;;;;;;;5.32;1.40;;;;;;;11.14;32.08;97568.56;5108043;28;20245;-74
2023/03/11 08:54:58;;;;;;;2.63;1.45;;;;;;;10.68;32.94;97489.47;5108053;28;20048;-74
2023/03/11 08:57:24;;;;;;;2.67;1.73;;;;;;;11.20;32.73;97565.41;5108292;28;20181;-74
2023/03/11 08:59:51;;;;;;;2.88;1.40;;;;;;;11.21;32.45;97567.06;5107770;28;20109;-74
2023/03/11 09:02:20;;;;;;;2.20;1.40;;;;;;;10.38;32.16;97461.13;5106888;28;20040;-74
2023/03/11 09:04:47;;;;;;;2.10;1.48;;;;;;;11.02;32.71;97555.53;5108041;28;20043;-74
2023/03/11 09:07:14;;;;;;;1.77;1.38;;;;;;;10.97;32.83;97560.38;5106843;28;20048;-75
2023/03/11 09:09:41;;;;;;;2.58;1.55;;;;;;;10.65;32.71;97525.97;5107686;28;20183;-74
2023/03/11 09:12:12;;;;;;;2.55;1.52;;;;;;;11.08;32.26;97606.22;5106676;28;20036;-74
2023/03/11 09:14:39;;;;;;;3.83;2.25;;;;;;;11.04;31.87;97566.84;5107810;28;20062;-74
2023/03/11 09:17:06;;;;;;;3.50;1.67;;;;;;;10.93;32.45;97612.81;5090497;28;20176;-74
2023/03/11 09:19:35;;;;;;;4.32;2.22;;;;;;;10.82;32.00;97595.16;5090591;28;20066;-74
2023/03/11 09:22:03;;;;;;;3.05;1.95;;;;;;;10.63;32.25;97600.28;5106704;28;20296;-74
2023/03/11 09:24:32;;;;;;;2.35;1.40;;;;;;;10.50;32.45;97629.59;5106691;28;20092;-74
2023/03/11 09:26:59;;;;;;;2.45;1.48;;;;;;;10.50;32.45;97608.41;5107425;28;20050;-75
2023/03/11 09:29:26;;;;;;;2.35;1.63;;;;;;;10.56;32.06;97625.59;5107298;28;20054;-75
2023/03/11 09:31:53;;;;;;;2.00;1.30;;;;;;;9.91;32.30;97569.13;5089610;28;20051;-74
2023/03/11 09:34:20;;;;;;;2.28;1.52;;;;;;;10.16;32.26;97638.59;5106106;28;20122;-75
2023/03/11 09:36:48;;;;;;;2.78;1.80;;;;;;;9.61;32.58;97579.50;5107594;28;20040;-74
2023/03/11 09:39:15;;;;;;;2.50;1.63;;;;;;;9.94;33.12;97629.72;5107340;28;20036;-75
2023/03/11 09:41:47;;;;;;;2.05;1.30;;;;;;;9.85;31.91;97656.09;5107547;28;20051;-74
2023/03/11 09:44:19;;;;;;;1.95;1.40;;;;;;;9.70;32.21;97658.13;5106178;28;20134;-75
2023/03/11 09:47:21;;;;;;;2.60;1.60;;;;;;;9.67;31.37;97668.94;5106202;28;20036;-74
2023/03/11 09:50:06;;;;;;;2.33;1.65;;;;;;;9.34;31.67;97637.16;5107179;28;20036;-74
2023/03/11 09:52:44;;;;;;;4.05;2.63;;;;;;;9.40;32.81;97682.50;5105958;28;20307;-74
2023/03/11 09:55:25;;;;;;;4.60;2.78;;;;;;;8.50;32.91;97548.44;5106726;28;20204;-74
2023/03/11 09:57:53;;;;;;;3.42;1.85;;;;;;;9.22;33.87;97705.03;5106411;28;20068;-74
2023/03/11 10:00:23;;;;;;;2.50;1.63;;;;;;;9.06;33.81;97701.81;5106095;28;20032;-75
2023/03/11 10:02:50;;;;;;;3.10;1.60;;;;;;;8.86;33.76;97721.81;5106835;28;20050;-74
2023/03/11 10:05:21;;;;;;;3.50;2.50;;;;;;;8.62;33.74;97692.75;5106258;28;20039;-75
2023/03/11 10:07:58;;;;;;;2.40;1.60;;;;;;;8.63;33.44;97724.34;5106665;28;20298;-75
2023/03/11 10:10:30;;;;;;;2.08;1.50;;;;;;;8.35;33.95;97682.41;5106595;28;20111;-75
2023/03/11 10:13:04;;;;;;;3.67;2.10;;;;;;;8.51;33.93;97730.50;5106577;28;20039;-74
2023/03/11 10:15:42;;;;;;;3.85;1.98;;;;;;;7.85;33.74;97644.69;5105969;28;20044;-75
2023/03/11 10:18:27;;;;;;;3.10;1.77;;;;;;;8.43;33.19;97738.13;5106703;28;20040;-74
2023/03/11 10:20:58;;;;;;;;;;;;;;;8.29;33.37;97739.13;5105919;28;20054;-75
2023/03/11 10:23:44;;;;;;;2.53;1.73;;;;;;;8.32;34.25;97757.38;5105984;28;19938;-74
2023/03/11 10:26:15;;;;;;;3.85;2.20;;;;;;;7.83;34.55;97707.25;5105344;28;20046;-74
2023/03/11 10:28:46;;;;;;;3.45;2.15;;;;;;;8.30;34.67;97771.66;5106196;28;20086;-74
2023/03/11 10:31:24;;;;;;;5.35;3.10;;;;;;;8.28;34.20;97763.00;5105471;28;20119;-75
2023/03/11 10:33:56;;;;;;;3.78;1.73;;;;;;;8.27;34.44;97769.22;5106124;28;20093;-75
2023/03/11 10:36:26;;;;;;;2.00;1.38;;;;;;;8.30;34.86;97775.13;5106395;28;20043;-75
2023/03/11 10:38:56;;;;;;;3.05;1.95;;;;;;;7.98;34.64;97721.16;5105190;28;20040;-75
2023/03/11 10:41:29;;;;;;;2.47;1.77;;;;;;;8.06;34.64;97733.81;5106359;28;20040;-75
2023/03/11 10:44:04;;;;;;;4.05;2.00;;;;;;;7.92;34.66;97743.53;5106042;28;20281;-75
2023/03/11 10:46:31;;;;;;;3.30;2.03;;;;;;;8.26;34.82;97794.78;5105785;28;20044;-75
2023/03/11 10:48:58;;;;;;;4.65;1.98;;;;;;;8.21;34.85;97798.69;5105113;28;20032;-75
2023/03/11 10:51:28;;;;;;;2.70;1.60;;;;;;;8.15;34.60;97801.75;5105757;28;20066;-75
2023/03/11 10:53:57;;;;;;;2.33;1.58;;;;;;;8.07;34.08;97812.00;5105703;28;20050;-75
2023/03/11 10:56:27;;;;;;;2.90;1.95;;;;;;;8.01;34.47;97816.75;5104685;28;20048;-75
2023/03/11 10:58:55;;;;;;;2.70;1.80;;;;;;;7.98;34.64;97808.22;5105262;28;20101;-75
2023/03/11 11:01:22;;;;;;;2.72;1.73;;;;;;;8.03;34.62;97820.13;5105714;28;20047;-75
2023/03/11 11:03:51;;;;;;;3.45;1.70;;;;;;;7.99;34.67;97823.94;5105799;28;20032;-75
2023/03/11 11:06:26;;;;;;;3.42;2.13;;;;;;;7.54;34.16;97748.81;5104624;28;20074;-76
2023/03/11 11:09:15;;;;;;;3.33;1.83;;;;;;;8.05;33.35;97838.50;5104282;28;20109;-75
2023/03/11 11:11:43;;;;;;;3.25;1.70;;;;;;;8.13;33.87;97844.09;5104972;28;20044;-75
2023/03/11 11:14:11;;;;;;;2.90;2.03;;;;;;;8.35;33.96;97835.50;5104812;28;20046;-75
2023/03/11 11:16:38;;;;;;;3.03;1.83;;;;;;;8.16;33.62;97764.72;5105373;28;20055;-75
2023/03/11 11:19:11;;;;;;;2.75;1.88;;;;;;;8.63;33.16;97832.63;5106017;28;20107;-75
2023/03/11 11:21:42;;;;;;;2.63;1.75;;;;;;;8.81;33.22;97830.44;5106031;28;20036;-75
2023/03/11 11:24:25;;;;;;;3.50;1.90;;;;;;;8.97;31.65;97824.91;5106172;28;20127;-75
2023/03/11 11:27:06;;;;;;;2.38;1.50;;;;;;;8.79;32.55;97761.03;5105664;28;20044;-75
2023/03/11 11:29:34;;;;;;;3.00;2.00;;;;;;;9.19;33.15;97809.16;5105231;28;20044;-75
2023/03/11 11:32:17;;;;;;;3.17;1.90;;;;;;;9.36;32.06;97820.31;5088124;28;20047;-75
2023/03/11 11:34:54;;;;;;;4.03;2.42;;;;;;;9.13;31.99;97766.47;5105796;28;20048;-74
2023/03/11 11:37:21;;;;;;;3.92;1.90;;;;;;;9.50;33.24;97823.66;5109412;28;20032;-75
2023/03/11 11:39:53;;;;;;;3.15;2.00;;;;;;;8.60;32.76;97708.72;5109670;28;20036;-75
2023/03/11 11:42:20;;;;;;;3.75;1.80;;;;;;;9.37;33.03;97829.94;5109657;28;20047;-75
2023/03/11 11:44:51;;;;;;;3.22;2.03;;;;;;;9.27;33.21;97830.59;5109736;28;20048;-74
2023/03/11 11:47:22;;;;;;;4.10;2.28;;;;;;;9.19;33.17;97838.22;5108797;28;20048;-75
2023/03/11 11:49:54;;;;;;;2.70;1.88;;;;;;;9.05;33.03;97859.53;5109097;28;20028;-75